createdAt,value
2023-05-24T05:00:16.805Z,15.81
2023-05-24T05:03:03.851Z,16.04
2023-05-24T05:05:50.455Z,16.43
2023-05-24T05:08:36.827Z,16.37
2023-05-24T05:11:23.552Z,17.05
2023-05-24T05:14:10.102Z,16.28
2023-05-24T05:23:31.477Z,16.68
2023-05-24T05:26:17.688Z,16.77
2023-05-24T05:29:06.025Z,17.58
2023-05-24T05:31:57.454Z,16.78
2023-05-24T05:34:43.904Z,16.94
2023-05-24T05:37:31.420Z,17.87
2023-05-24T05:40:19.441Z,17.22
2023-05-24T05:43:05.856Z,18.19
2023-05-24T05:45:52.225Z,18.56
2023-05-24T05:48:38.480Z,17.08
2023-05-24T05:51:25.057Z,16.64
2023-05-24T05:54:15.422Z,16.73
2023-05-24T05:57:03.066Z,17.03
2023-05-24T05:59:49.897Z,16.69
2023-05-24T06:02:36.450Z,16.38
2023-05-24T06:05:22.724Z,16.43
2023-05-24T06:08:09.127Z,16.10
2023-05-24T06:10:55.468Z,16.53
2023-05-24T06:13:43.024Z,17.53
2023-05-24T06:16:29.481Z,17.02
2023-05-24T06:19:16.594Z,16.73
2023-05-24T06:22:03.022Z,16.20
2023-05-24T06:24:50.190Z,16.09
2023-05-24T06:27:36.768Z,15.75
2023-05-24T06:30:24.415Z,17.04
2023-05-24T06:33:11.305Z,17.83
2023-05-24T06:35:57.469Z,18.10
2023-05-24T06:38:43.833Z,17.36
2023-05-24T06:41:30.379Z,17.29
2023-05-24T06:44:16.674Z,17.45
2023-05-24T06:47:05.890Z,18.71
2023-05-24T06:49:53.371Z,18.17
2023-05-24T06:52:40.062Z,17.15
2023-05-24T06:55:26.503Z,17.12
2023-05-24T06:58:14.458Z,16.99
2023-05-24T07:01:00.961Z,18.22
2023-05-24T07:13:37.899Z,17.36
2023-05-24T07:20:42.344Z,17.42
2023-05-24T07:23:28.903Z,17.82
2023-05-24T07:26:15.263Z,19.23
2023-05-24T07:29:01.845Z,18.91
2023-05-24T07:31:48.535Z,19.34
2023-05-24T07:34:36.451Z,18.01
2023-05-24T07:37:24.296Z,18.38
2023-05-24T07:40:12.293Z,19.33
2023-05-24T07:46:40.906Z,19.62
2023-05-24T07:50:13.865Z,19.65
2023-05-24T07:53:34.955Z,19.04
2023-05-24T07:56:24.721Z,19.80
2023-05-24T07:59:10.985Z,20.97
2023-05-24T08:02:01.423Z,20.42
2023-05-24T08:04:48.902Z,20.13
2023-05-24T08:07:35.640Z,20.60
2023-05-24T08:10:23.320Z,19.23
2023-05-24T08:13:09.957Z,20.37
2023-05-24T08:15:58.447Z,19.69
2023-05-24T08:18:44.634Z,19.33
2023-05-24T08:21:33.770Z,19.38
2023-05-24T08:24:20.940Z,19.37
2023-05-24T08:27:07.445Z,19.38
2023-05-24T08:29:55.470Z,18.86
2023-05-24T08:32:43.553Z,18.57
2023-05-24T08:35:30.271Z,18.99
2023-05-24T08:38:17.857Z,18.90
2023-05-24T08:41:06.944Z,20.05
2023-05-24T08:43:54.869Z,19.06
2023-05-24T08:46:41.254Z,19.05
2023-05-24T09:43:58.366Z,21.18
2023-05-24T12:05:31.612Z,23.02
2023-05-24T12:08:18.242Z,21.04
2023-05-24T12:11:05.199Z,21.75
2023-05-24T12:14:48.426Z,21.12
2023-05-24T12:17:38.966Z,21.09
2023-05-24T12:20:30.736Z,21.03
2023-05-24T12:23:17.893Z,21.91
2023-05-24T12:26:06.386Z,21.66
2023-05-24T12:28:55.136Z,22.16
2023-05-24T12:31:42.864Z,22.92
2023-05-24T12:34:32.356Z,22.46
2023-05-24T12:37:20.376Z,22.43
2023-05-24T12:40:17.329Z,22.15
2023-05-24T12:43:05.249Z,22.75
2023-05-24T12:45:53.594Z,21.53
2023-05-24T12:48:40.674Z,21.78
2023-05-24T12:51:27.048Z,22.78
2023-05-24T12:54:14.846Z,22.88
2023-05-24T12:57:02.762Z,23.15
2023-05-24T12:59:49.352Z,23.44
2023-05-24T13:02:38.137Z,23.58
2023-05-24T13:05:31.789Z,21.97
2023-05-24T13:08:18.586Z,21.61
2023-05-24T13:11:09.544Z,22.08
2023-05-24T13:14:02.661Z,22.74
2023-05-24T13:16:49.649Z,22.65
2023-05-24T13:19:36.597Z,22.39
2023-05-24T13:22:22.846Z,22.43
2023-05-24T13:25:10.317Z,22.35
2023-05-24T13:27:59.455Z,22.84
2023-05-24T13:30:46.275Z,21.88
2023-05-24T13:43:22.507Z,20.73
2023-05-24T13:46:47.151Z,21.08
2023-05-24T13:49:33.891Z,21.36
2023-05-24T13:52:22.829Z,21.74
2023-05-24T13:55:10.782Z,22.55
2023-05-24T13:57:57.378Z,22.97
2023-05-24T14:00:44.152Z,23.11
2023-05-24T14:03:32.029Z,23.46
2023-05-24T14:06:20.913Z,23.08
2023-05-24T14:09:08.440Z,22.36
2023-05-24T14:11:55.494Z,23.14
2023-05-24T14:15:26.524Z,22.52
2023-05-24T14:18:25.895Z,23.36
2023-05-24T14:21:13.492Z,22.98
2023-05-24T14:23:59.700Z,21.93
2023-05-24T14:26:47.515Z,21.87
2023-05-24T14:29:34.129Z,22.49
2023-05-24T14:32:20.288Z,22.06
2023-05-24T14:35:07.457Z,21.54
2023-05-24T14:37:55.311Z,21.63
2023-05-24T14:40:42.210Z,21.90
2023-05-24T14:43:28.851Z,21.40
2023-05-24T14:46:15.454Z,22.11
2023-05-24T14:49:02.508Z,22.85
2023-05-24T14:51:49.541Z,22.05
2023-05-24T14:54:37.290Z,21.52
2023-05-24T14:57:23.604Z,21.77
2023-05-24T15:14:35.777Z,21.21
2023-05-24T15:17:22.525Z,21.19
2023-05-24T15:20:09.735Z,21.75
2023-05-24T15:22:56.260Z,22.91
2023-05-24T15:25:43.062Z,23.80
2023-05-24T15:28:29.426Z,23.43
2023-05-24T15:31:17.354Z,22.81
2023-05-24T15:34:04.898Z,21.82
2023-05-24T15:36:51.250Z,21.31
2023-05-24T15:39:37.559Z,21.16
2023-05-24T15:42:24.730Z,21.08
2023-05-24T15:45:12.392Z,20.64
2023-05-24T15:48:00.322Z,22.60
2023-05-24T15:53:36.706Z,21.26
2023-05-24T15:56:23.366Z,21.03
2023-05-24T15:59:10.124Z,20.89
2023-05-24T16:01:56.532Z,20.80
2023-05-24T16:04:45.506Z,20.53
2023-05-24T16:07:32.139Z,20.64
2023-05-24T16:12:26.133Z,22.97
2023-05-24T16:59:33.763Z,23.57
2023-05-24T17:02:20.027Z,24.01
2023-05-24T17:05:07.626Z,22.75
2023-05-24T17:07:56.323Z,22.00
2023-05-24T17:10:44.216Z,21.74
2023-05-24T17:13:36.703Z,20.70
2023-05-24T17:16:24.847Z,19.82
2023-05-24T17:19:13.914Z,19.83
2023-05-24T17:22:00.836Z,19.00
2023-05-24T17:24:50.552Z,19.00
2023-05-24T17:27:38.325Z,18.63
2023-05-24T17:30:28.378Z,19.28
2023-05-24T17:33:16.382Z,19.07
2023-05-24T17:36:04.212Z,20.09
2023-05-24T17:38:50.721Z,19.85
2023-05-24T17:41:37.469Z,19.76
2023-05-24T17:44:24.220Z,20.21
2023-05-24T17:47:11.897Z,19.76
2023-05-24T17:49:59.232Z,19.57
2023-05-24T17:52:45.773Z,18.97
2023-05-24T17:55:31.886Z,19.95
2023-05-24T17:58:18.328Z,19.67
2023-05-24T18:01:06.061Z,19.65
2023-05-24T18:03:52.446Z,19.43
2023-05-24T18:06:47.370Z,18.74
2023-05-24T18:09:34.072Z,18.46
2023-05-24T18:12:22.897Z,18.64
2023-05-24T18:15:09.834Z,19.00
2023-05-24T18:17:56.578Z,18.94
2023-05-24T18:20:51.912Z,19.26
2023-05-24T18:23:39.796Z,19.05
2023-05-24T18:26:27.242Z,19.02
2023-05-24T18:29:13.739Z,19.29
2023-05-24T18:32:00.413Z,19.09
2023-05-24T18:34:46.898Z,19.32
2023-05-24T18:37:33.201Z,19.24
2023-05-24T18:40:21.233Z,19.36
2023-05-24T18:43:07.631Z,19.70
2023-05-24T18:45:53.660Z,18.99
2023-05-24T18:48:41.365Z,18.38
2023-05-24T18:51:27.748Z,18.63
2023-05-24T18:54:13.841Z,18.86
2023-05-24T18:57:04.521Z,18.93
2023-05-24T18:59:51.313Z,19.33
2023-05-24T19:47:33.256Z,17.53
2023-05-24T19:50:19.921Z,17.54
2023-05-24T19:53:06.280Z,15.54
2023-05-24T19:55:52.924Z,14.88
2023-05-24T19:58:39.796Z,14.50
2023-05-24T20:20:20.440Z,16.07
2023-05-24T20:23:06.945Z,16.18
2023-05-24T20:25:53.485Z,16.26
2023-05-24T20:28:40.009Z,16.17
2023-05-24T20:31:26.452Z,15.93
2023-05-24T20:34:13.210Z,15.85
2023-05-24T20:37:00.786Z,15.93
2023-05-24T20:39:47.186Z,16.07
2023-05-24T20:42:33.978Z,15.91
2023-05-24T20:45:21.408Z,16.02
2023-05-24T20:48:08.156Z,16.04
2023-05-24T20:50:54.843Z,16.00
2023-05-24T20:53:42.626Z,15.60
2023-05-24T20:56:28.926Z,13.89
2023-05-24T20:59:15.342Z,13.51
2023-05-24T21:02:01.960Z,13.11
2023-05-24T21:04:48.196Z,12.67
2023-05-24T21:07:34.564Z,12.67
2023-05-24T21:10:22.869Z,13.87
2023-05-24T21:13:09.255Z,14.21
2023-05-24T21:15:55.767Z,14.54
2023-05-24T21:18:42.298Z,14.98
2023-05-24T21:21:28.633Z,15.01
2023-05-24T21:24:15.884Z,14.00
2023-05-24T21:27:03.649Z,14.78
2023-05-24T21:29:50.071Z,14.73
2023-05-24T21:32:36.297Z,14.70
2023-05-24T21:35:22.949Z,13.93
2023-05-24T21:38:10.116Z,13.94
2023-05-24T21:40:56.445Z,14.45
2023-05-24T21:43:44.527Z,13.85
2023-05-24T21:46:33.568Z,13.51
2023-05-24T21:49:20.128Z,13.84
2023-05-24T21:52:06.550Z,13.72
2023-05-24T21:54:52.628Z,14.06
2023-05-24T21:57:38.881Z,14.26
2023-05-24T22:00:28.114Z,13.74
2023-05-24T22:03:15.413Z,14.13
2023-05-24T22:06:02.056Z,13.98
2023-05-24T22:08:48.735Z,13.82
2023-05-24T22:11:35.492Z,14.15
2023-05-24T22:14:21.843Z,14.85
